Time;durP1;ratioP1;P1;durP2;ratioP2;P2;SDS_P1;SDS_P2;PMS_P1;PMS_P2;Temp;Humidity;BMP_temperature;BMP_pressure;BME280_temperature;BME280_humidity;BME280_pressure;Samples;Min_cycle;Max_cycle;Signal;HPM_P1;HPM_P2
2023/01/15 00:02:05;;;;;;;10.80;2.40;;;5.30;99.90;;;;;;4995690;28;20080;-75
2023/01/15 00:04:31;;;;;;;9.13;1.20;;;5.30;99.90;;;;;;5028270;28;20029;-75
2023/01/15 00:06:56;;;;;;;9.80;1.67;;;5.40;99.90;;;;;;5045564;28;20106;-75
2023/01/15 00:09:22;;;;;;;9.87;1.87;;;5.40;99.90;;;;;;4992250;28;20046;-76
2023/01/15 00:11:48;;;;;;;9.83;1.33;;;5.30;99.90;;;;;;5027427;28;20048;-75
2023/01/15 00:14:13;;;;;;;16.70;1.50;;;5.40;99.90;;;;;;5028944;28;20047;-75
2023/01/15 00:16:39;;;;;;;13.27;1.20;;;5.40;99.90;;;;;;5028110;28;20053;-75
2023/01/15 00:19:07;;;;;;;13.67;2.07;;;5.40;99.90;;;;;;5010833;28;20048;-75
2023/01/15 00:21:33;;;;;;;10.88;1.48;;;5.40;99.90;;;;;;5027747;28;20409;-74
2023/01/15 00:29:28;;;;;;;11.85;1.60;;;5.30;99.90;;;;;;5030484;28;20041;-75
2023/01/15 00:32:04;;;;;;;14.53;1.80;;;5.30;99.90;;;;;;5028568;28;20044;-75
2023/01/15 00:34:30;;;;;;;14.70;2.15;;;5.30;99.90;;;;;;5027374;28;20033;-75
2023/01/15 00:36:56;;;;;;;10.67;1.87;;;5.30;99.90;;;;;;5008545;28;20456;-75
2023/01/15 00:39:25;;;;;;;15.85;1.55;;;5.30;99.90;;;;;;5020381;28;20037;-74
2023/01/15 00:41:52;;;;;;;18.08;1.88;;;5.30;99.90;;;;;;5044882;28;20471;-75
2023/01/15 00:44:18;;;;;;;13.77;1.63;;;5.30;99.90;;;;;;5028614;28;20040;-75
2023/01/15 00:46:43;;;;;;;14.90;1.53;;;5.30;99.90;;;;;;5027762;28;20040;-75
2023/01/15 00:49:09;;;;;;;9.33;1.10;;;5.30;99.90;;;;;;5005403;28;20101;-74
2023/01/15 00:51:35;;;;;;;13.30;1.60;;;5.40;99.90;;;;;;5026955;28;20057;-75
2023/01/15 00:54:01;;;;;;;12.03;1.60;;;5.30;99.90;;;;;;5009553;28;20053;-75
2023/01/15 00:56:27;;;;;;;11.13;1.80;;;5.40;99.90;;;;;;5011132;28;20041;-75
2023/01/15 00:58:53;;;;;;;12.73;1.40;;;5.40;99.90;;;;;;5008519;28;20136;-75
2023/01/15 01:01:19;;;;;;;11.50;1.50;;;5.40;99.90;;;;;;5010433;28;20108;-75
2023/01/15 01:03:51;;;;;;;12.00;1.90;;;5.40;99.90;;;;;;5023582;28;20111;-75
2023/01/15 01:06:18;;;;;;;17.13;1.95;;;5.40;99.90;;;;;;5028928;28;20111;-75
2023/01/15 01:08:46;;;;;;;14.30;2.35;;;5.40;99.90;;;;;;5028075;28;20131;-75
2023/01/15 01:11:14;;;;;;;11.73;1.58;;;5.30;99.90;;;;;;5012033;28;20464;-74
2023/01/15 01:13:40;;;;;;;13.30;2.20;;;5.30;99.90;;;;;;5044015;28;20122;-75
2023/01/15 01:16:37;;;;;;;14.80;1.90;;;5.30;99.90;;;;;;5028503;28;22007;-75
2023/01/15 01:19:07;;;;;;;11.27;1.77;;;5.30;99.90;;;;;;5011441;28;20059;-74
2023/01/15 01:21:34;;;;;;;12.07;1.70;;;5.40;99.90;;;;;;5035486;28;20045;-74
2023/01/15 01:24:00;;;;;;;11.20;1.52;;;5.40;99.90;;;;;;5025765;28;20123;-74
2023/01/15 01:26:27;;;;;;;8.85;1.50;;;5.30;99.90;;;;;;5022292;28;20126;-74
2023/01/15 01:28:54;;;;;;;11.18;1.63;;;5.30;99.90;;;;;;5038771;28;20044;-75
2023/01/15 01:31:20;;;;;;;9.55;1.52;;;5.30;99.90;;;;;;5028236;28;20596;-75
2023/01/15 01:33:51;;;;;;;12.32;1.50;;;5.30;99.90;;;;;;5027469;28;20045;-74
2023/01/15 01:36:17;;;;;;;21.58;2.55;;;5.30;99.90;;;;;;5026760;28;20048;-74
2023/01/15 01:38:48;;;;;;;12.73;2.20;;;5.30;99.90;;;;;;5042960;28;20480;-74
2023/01/15 01:41:14;;;;;;;14.90;1.67;;;5.30;99.90;;;;;;5027017;28;20488;-75
2023/01/15 01:44:00;;;;;;;12.40;2.08;;;5.30;99.90;;;;;;5021339;28;20124;-76
2023/01/15 01:46:28;;;;;;;16.02;2.10;;;5.30;99.90;;;;;;5044913;28;20052;-74
2023/01/15 01:48:58;;;;;;;13.18;1.70;;;5.30;99.90;;;;;;5031375;28;20064;-75
2023/01/15 01:51:30;;;;;;;13.82;2.63;;;5.30;99.90;;;;;;5030166;28;20056;-75
2023/01/15 01:53:59;;;;;;;15.15;1.90;;;5.20;99.90;;;;;;5031935;28;20436;-75
2023/01/15 01:56:25;;;;;;;14.27;2.13;;;5.20;99.90;;;;;;5030951;28;20120;-75
2023/01/15 01:58:53;;;;;;;9.93;1.30;;;5.20;99.90;;;;;;5031454;28;20144;-75
2023/01/15 02:01:21;;;;;;;9.60;1.48;;;5.20;99.90;;;;;;5030580;28;20468;-74
2023/01/15 02:03:47;;;;;;;14.57;1.48;;;5.20;99.90;;;;;;5047513;28;20099;-75
2023/01/15 02:06:14;;;;;;;13.90;2.03;;;5.20;99.90;;;;;;5047200;28;20041;-75
2023/01/15 02:08:40;;;;;;;10.98;1.80;;;5.20;99.90;;;;;;5013739;28;20105;-75
2023/01/15 02:11:11;;;;;;;8.77;1.60;;;5.20;99.90;;;;;;5031362;28;20554;-75
2023/01/15 02:13:57;;;;;;;17.23;1.90;;;5.20;99.90;;;;;;5029551;28;20076;-74
2023/01/15 02:16:25;;;;;;;15.50;2.28;;;5.20;99.90;;;;;;5038326;28;20416;-74
2023/01/15 02:18:50;;;;;;;14.15;1.85;;;5.30;99.90;;;;;;5046701;28;20049;-75
2023/01/15 02:21:47;;;;;;;10.70;1.57;;;5.30;99.90;;;;;;5030814;28;20045;-74
2023/01/15 02:24:24;;;;;;;;;;;5.30;99.90;;;;;;5029928;28;20841;-74
2023/01/15 02:27:19;;;;;;;10.25;1.50;;;5.30;99.90;;;;;;5044523;28;20003;-74
2023/01/15 02:29:57;;;;;;;14.13;2.38;;;5.20;99.90;;;;;;5029661;28;20498;-74
2023/01/15 02:32:28;;;;;;;11.55;1.98;;;5.20;99.90;;;;;;5019880;28;20182;-75
2023/01/15 02:35:00;;;;;;;13.68;1.88;;;5.20;99.90;;;;;;5043576;28;20562;-74
2023/01/15 02:37:29;;;;;;;10.55;1.33;;;5.20;99.90;;;;;;5029580;28;20128;-75
2023/01/15 02:39:58;;;;;;;9.90;1.80;;;5.20;99.90;;;;;;5022958;28;20138;-74
2023/01/15 02:42:26;;;;;;;11.13;1.42;;;5.20;99.90;;;;;;5029254;28;20038;-74
2023/01/15 02:44:55;;;;;;;13.52;1.50;;;5.20;99.90;;;;;;5010987;28;20120;-74
2023/01/15 02:47:30;;;;;;;16.30;1.92;;;5.30;99.90;;;;;;5030435;28;20037;-74
2023/01/15 02:49:57;;;;;;;;;;;5.30;99.90;;;;;;5045481;28;20420;-75
2023/01/15 02:52:35;;;;;;;12.40;1.50;;;5.30;99.90;;;;;;5047221;28;19923;-75
2023/01/15 02:55:10;;;;;;;14.10;1.40;;;5.30;99.90;;;;;;5042413;28;20532;-75
2023/01/15 02:57:40;;;;;;;12.52;1.38;;;5.20;99.90;;;;;;5030454;28;20071;-75
2023/01/15 03:00:11;;;;;;;8.95;1.48;;;5.20;99.90;;;;;;5045049;28;20044;-74
2023/01/15 03:03:09;;;;;;;10.60;1.52;;;5.20;99.90;;;;;;5046843;28;20041;-74
2023/01/15 03:05:47;;;;;;;13.10;1.98;;;5.10;99.90;;;;;;5007638;28;20049;-74
2023/01/15 03:08:13;;;;;;;14.13;2.17;;;5.10;99.90;;;;;;5030482;28;20887;-74
2023/01/15 03:11:01;;;;;;;20.48;2.10;;;5.10;99.90;;;;;;5012502;28;20589;-75
2023/01/15 03:13:36;;;;;;;12.43;1.88;;;5.10;99.90;;;;;;5024080;28;20461;-74
2023/01/15 03:19:04;;;;;;;13.63;1.73;;;5.00;99.90;;;;;;5044490;28;20048;-75
2023/01/15 03:21:49;;;;;;;13.02;1.65;;;5.00;99.90;;;;;;5045388;28;20124;-74
2023/01/15 03:24:41;;;;;;;10.77;1.95;;;5.00;99.90;;;;;;5030154;28;20102;-75
2023/01/15 03:27:06;;;;;;;9.38;1.83;;;5.00;99.90;;;;;;5045820;28;20068;-74
2023/01/15 03:29:42;;;;;;;8.60;1.80;;;4.90;99.90;;;;;;5030122;28;20076;-74
2023/01/15 03:32:08;;;;;;;17.83;2.08;;;5.00;99.90;;;;;;5028773;28;20290;-74
2023/01/15 03:34:50;;;;;;;14.10;1.90;;;5.00;99.90;;;;;;5046495;28;20045;-74
2023/01/15 03:37:18;;;;;;;9.73;1.73;;;5.00;99.90;;;;;;5011283;28;20382;-75
2023/01/15 03:39:44;;;;;;;10.52;1.35;;;5.00;99.90;;;;;;5036364;28;20049;-74
2023/01/15 03:42:31;;;;;;;12.03;1.50;;;5.00;99.90;;;;;;5046575;28;20052;-74
2023/01/15 03:45:11;;;;;;;12.35;1.98;;;5.00;99.90;;;;;;5028794;28;20044;-74
2023/01/15 03:47:55;;;;;;;11.35;1.35;;;5.00;99.90;;;;;;5043728;28;20482;-74
2023/01/15 03:50:35;;;;;;;10.15;1.40;;;5.00;99.90;;;;;;5043056;28;20053;-74
2023/01/15 03:53:14;;;;;;;11.80;2.28;;;5.00;99.90;;;;;;5046281;28;20199;-74
2023/01/15 03:55:49;;;;;;;17.65;1.98;;;5.00;99.90;;;;;;5045420;28;20056;-74
2023/01/15 03:58:29;;;;;;;11.30;1.73;;;4.90;99.90;;;;;;5043900;28;20040;-75
2023/01/15 04:00:58;;;;;;;13.70;2.65;;;4.90;99.90;;;;;;5027224;28;20592;-74
2023/01/15 04:03:25;;;;;;;11.80;2.13;;;4.90;99.90;;;;;;5027951;28;20037;-75
2023/01/15 04:05:53;;;;;;;11.63;1.17;;;4.90;99.90;;;;;;5027383;28;20033;-74
2023/01/15 04:08:19;;;;;;;13.48;1.70;;;4.90;99.90;;;;;;5045343;28;20091;-75
2023/01/15 04:10:57;;;;;;;13.27;2.15;;;4.90;99.90;;;;;;4995012;28;20119;-75
2023/01/15 04:13:23;;;;;;;12.40;1.75;;;4.80;99.90;;;;;;5029217;28;20481;-75
2023/01/15 04:15:50;;;;;;;15.07;1.50;;;4.80;99.90;;;;;;5029168;28;20112;-74
2023/01/15 04:18:16;;;;;;;12.82;1.15;;;4.80;99.90;;;;;;5044517;28;20094;-75
2023/01/15 04:20:43;;;;;;;10.23;1.55;;;4.80;99.90;;;;;;5027402;28;20144;-73
2023/01/15 04:23:09;;;;;;;14.73;2.65;;;4.80;99.90;;;;;;5028759;28;20037;-74
2023/01/15 04:25:35;;;;;;;15.18;2.15;;;4.80;99.90;;;;;;5043277;28;20037;-74
2023/01/15 04:28:01;;;;;;;20.50;2.37;;;4.80;99.90;;;;;;5045764;28;20504;-74
2023/01/15 04:30:30;;;;;;;14.47;2.20;;;4.80;99.90;;;;;;5028399;28;20047;-75
2023/01/15 04:32:56;;;;;;;16.58;2.58;;;4.70;99.90;;;;;;5043421;28;20040;-74
2023/01/15 04:35:21;;;;;;;12.43;1.97;;;4.70;99.90;;;;;;5029165;28;20400;-74
2023/01/15 04:37:47;;;;;;;11.77;2.20;;;4.70;99.90;;;;;;5009785;28;20063;-74
2023/01/15 04:44:05;;;;;;;14.83;2.90;;;4.70;99.90;;;;;;5044622;28;20586;-74
2023/01/15 04:45:44;;;;;;;13.75;2.05;;;4.60;99.90;;;;;;5031421;28;20064;-75
2023/01/15 04:48:11;;;;;;;9.82;1.40;;;4.60;99.90;;;;;;5012345;28;20168;-74
2023/01/15 04:50:37;;;;;;;15.77;2.92;;;4.60;99.90;;;;;;5011108;28;20045;-75
2023/01/15 04:53:05;;;;;;;17.40;2.05;;;4.60;99.90;;;;;;5008626;28;20102;-74
2023/01/15 04:55:31;;;;;;;17.92;1.63;;;4.60;99.90;;;;;;5006799;28;20463;-74
2023/01/15 04:57:57;;;;;;;15.43;1.93;;;4.60;99.90;;;;;;5028618;28;20124;-74
2023/01/15 05:00:22;;;;;;;14.93;1.70;;;4.60;99.90;;;;;;5026967;28;20386;-74
2023/01/15 05:02:48;;;;;;;9.43;1.63;;;4.50;99.90;;;;;;4996055;28;20033;-74
2023/01/15 05:05:15;;;;;;;12.38;2.70;;;4.60;99.90;;;;;;5022562;28;20052;-74
2023/01/15 05:07:41;;;;;;;12.45;1.63;;;4.50;99.90;;;;;;5044362;28;20068;-75
2023/01/15 05:10:07;;;;;;;10.70;1.40;;;4.50;99.90;;;;;;5044006;28;20083;-75
2023/01/15 05:12:33;;;;;;;11.23;1.65;;;4.50;99.90;;;;;;5043925;28;20787;-75
2023/01/15 05:14:59;;;;;;;10.80;1.40;;;4.40;99.90;;;;;;5011537;28;20124;-75
2023/01/15 05:17:24;;;;;;;9.47;1.10;;;4.40;99.90;;;;;;4994547;28;20345;-75
2023/01/15 05:19:50;;;;;;;12.80;1.97;;;4.30;99.90;;;;;;4985999;28;20042;-75
2023/01/15 05:22:16;;;;;;;14.73;1.97;;;4.30;99.90;;;;;;4996217;28;20541;-75
2023/01/15 05:24:41;;;;;;;17.17;1.67;;;4.30;99.90;;;;;;5011070;28;20037;-75
2023/01/15 05:27:07;;;;;;;16.07;2.67;;;4.30;99.90;;;;;;5014943;28;20131;-75
2023/01/15 05:29:33;;;;;;;11.17;1.43;;;4.30;99.90;;;;;;5014241;28;20041;-75
2023/01/15 05:31:59;;;;;;;13.03;1.67;;;4.30;99.90;;;;;;5010726;28;20050;-75
2023/01/15 05:34:24;;;;;;;12.50;1.80;;;4.30;99.90;;;;;;5007531;28;20044;-75
2023/01/15 05:36:50;;;;;;;11.77;1.40;;;4.30;99.90;;;;;;5047147;28;20049;-75
2023/01/15 05:39:16;;;;;;;12.83;1.37;;;4.30;99.90;;;;;;5031155;28;20098;-75
2023/01/15 05:41:50;;;;;;;10.40;1.23;;;4.30;99.90;;;;;;5046748;28;20045;-75
2023/01/15 05:44:22;;;;;;;14.07;1.63;;;4.30;99.90;;;;;;5016355;28;20041;-75
2023/01/15 05:46:50;;;;;;;11.13;1.73;;;4.30;99.90;;;;;;5047886;28;20087;-75
2023/01/15 05:49:18;;;;;;;13.27;1.63;;;4.30;99.90;;;;;;5047235;28;20065;-75
2023/01/15 05:51:45;;;;;;;9.60;1.48;;;4.40;99.90;;;;;;5030962;28;20318;-75
2023/01/15 05:54:17;;;;;;;11.02;1.30;;;4.40;99.90;;;;;;5031341;28;20077;-75
2023/01/15 05:56:44;;;;;;;17.70;3.15;;;4.40;99.90;;;;;;5031091;28;20482;-75
2023/01/15 05:59:11;;;;;;;16.15;2.05;;;4.40;99.90;;;;;;5030448;28;20045;-75
2023/01/15 06:01:37;;;;;;;16.70;1.42;;;4.30;99.90;;;;;;5031276;28;20542;-75
2023/01/15 06:04:05;;;;;;;8.77;1.83;;;4.40;99.90;;;;;;5031116;28;20045;-75
2023/01/15 06:06:32;;;;;;;10.02;1.35;;;4.40;99.90;;;;;;5031590;28;20507;-75
2023/01/15 06:08:57;;;;;;;9.90;1.70;;;4.40;99.90;;;;;;5046431;28;20458;-74
2023/01/15 06:11:24;;;;;;;10.33;1.60;;;4.30;99.90;;;;;;4998205;28;20041;-75
2023/01/15 06:13:49;;;;;;;12.20;1.92;;;4.30;99.90;;;;;;5014847;28;20100;-75
2023/01/15 06:16:15;;;;;;;8.50;1.37;;;4.30;99.90;;;;;;5010456;28;20073;-75
2023/01/15 06:18:41;;;;;;;12.37;2.00;;;4.30;99.90;;;;;;5013985;28;20079;-75
2023/01/15 06:21:10;;;;;;;9.27;2.00;;;4.30;99.90;;;;;;5013849;28;20041;-75
2023/01/15 06:23:36;;;;;;;10.68;1.40;;;4.30;99.90;;;;;;5045386;28;20342;-75
2023/01/15 06:26:04;;;;;;;14.48;1.30;;;4.30;99.90;;;;;;5031318;28;20041;-75
2023/01/15 06:28:30;;;;;;;9.98;1.45;;;4.30;99.90;;;;;;5047271;28;20512;-75
2023/01/15 06:30:56;;;;;;;13.82;1.85;;;4.30;99.90;;;;;;5030257;28;20044;-75
2023/01/15 06:33:23;;;;;;;13.50;1.80;;;4.30;99.90;;;;;;5030457;28;20033;-76
2023/01/15 06:35:48;;;;;;;6.30;0.80;;;4.30;99.90;;;;;;5032401;28;20036;-75
2023/01/15 06:38:14;;;;;;;7.60;1.47;;;4.30;99.90;;;;;;5035840;28;20067;-75
2023/01/15 06:40:40;;;;;;;10.43;1.10;;;4.30;99.90;;;;;;5028915;28;20760;-75
2023/01/15 06:47:19;;;;;;;12.95;1.75;;;4.30;99.90;;;;;;5047310;28;20102;-74
2023/01/15 06:48:51;;;;;;;12.77;1.98;;;4.20;99.90;;;;;;5031130;28;20068;-75
2023/01/15 06:51:19;;;;;;;11.03;1.30;;;4.20;99.90;;;;;;5007814;28;20029;-75
2023/01/15 06:53:46;;;;;;;9.63;1.63;;;4.20;99.90;;;;;;5012675;28;20087;-75
2023/01/15 06:56:16;;;;;;;10.40;1.30;;;4.30;99.90;;;;;;5030392;28;20384;-75
2023/01/15 06:58:42;;;;;;;10.35;1.08;;;4.30;99.90;;;;;;5029978;28;20436;-74
2023/01/15 07:01:14;;;;;;;12.65;1.38;;;4.30;99.90;;;;;;5029062;28;20110;-74
2023/01/15 07:03:40;;;;;;;9.55;1.15;;;4.40;99.90;;;;;;5030113;28;20036;-74
2023/01/15 07:06:11;;;;;;;12.30;1.40;;;4.40;99.90;;;;;;5013185;28;20037;-74
2023/01/15 07:08:37;;;;;;;10.95;1.42;;;4.50;99.90;;;;;;5029185;28;20489;-75
2023/01/15 07:11:05;;;;;;;15.35;1.40;;;4.60;99.90;;;;;;5045131;28;20040;-75
2023/01/15 07:13:32;;;;;;;9.27;1.02;;;4.60;99.90;;;;;;5046672;28;20037;-75
2023/01/15 07:15:59;;;;;;;7.35;0.98;;;4.60;99.90;;;;;;5011638;28;20037;-75
2023/01/15 07:18:26;;;;;;;8.75;1.10;;;4.60;99.90;;;;;;5026708;28;20045;-75
2023/01/15 07:20:56;;;;;;;11.07;1.00;;;4.70;99.90;;;;;;5029364;28;20041;-75
2023/01/15 07:23:24;;;;;;;12.80;2.13;;;4.70;99.90;;;;;;5028402;28;20037;-75
2023/01/15 07:25:52;;;;;;;7.45;1.17;;;4.70;99.90;;;;;;5044785;28;20094;-74
2023/01/15 07:28:18;;;;;;;9.85;2.03;;;4.70;99.90;;;;;;5029562;28;20059;-74
2023/01/15 07:30:44;;;;;;;9.32;1.48;;;4.70;99.90;;;;;;5029563;28;20525;-75
2023/01/15 07:33:09;;;;;;;9.30;1.57;;;4.70;99.90;;;;;;5029488;28;20101;-74
2023/01/15 07:35:35;;;;;;;11.83;1.70;;;4.70;99.90;;;;;;5029704;28;20245;-75
2023/01/15 07:38:02;;;;;;;8.20;1.43;;;4.70;99.90;;;;;;5031150;28;20047;-75
2023/01/15 07:40:27;;;;;;;10.15;1.23;;;4.70;99.90;;;;;;5027666;28;20028;-74
2023/01/15 07:51:11;;;;;;;17.42;1.88;;;4.60;99.90;;;;;;5021222;28;20053;-75
2023/01/15 07:53:36;;;;;;;12.27;1.13;;;4.60;99.90;;;;;;5046448;28;20455;-74
2023/01/15 07:56:02;;;;;;;9.67;1.30;;;4.70;99.90;;;;;;5030045;28;20043;-74
2023/01/15 07:58:28;;;;;;;12.60;1.30;;;4.70;99.90;;;;;;5028368;28;20048;-74
2023/01/15 08:00:54;;;;;;;8.30;1.47;;;4.70;99.90;;;;;;4992922;28;20045;-75
2023/01/15 08:03:19;;;;;;;11.60;1.53;;;4.70;99.90;;;;;;4991975;28;20049;-75
2023/01/15 08:05:45;;;;;;;16.77;1.87;;;4.60;99.90;;;;;;5024914;28;20123;-75
2023/01/15 08:08:20;;;;;;;11.47;1.30;;;4.60;99.90;;;;;;5010331;28;20044;-74
2023/01/15 08:16:14;;;;;;;15.38;1.13;;;4.60;99.90;;;;;;5018312;28;20564;-74
2023/01/15 08:18:40;;;;;;;12.60;1.17;;;4.60;99.90;;;;;;5028830;28;20045;-74
2023/01/15 08:21:11;;;;;;;10.63;1.00;;;4.60;99.90;;;;;;5045455;28;20400;-74
2023/01/15 08:23:37;;;;;;;10.32;1.33;;;4.80;99.90;;;;;;5019475;28;20481;-75
2023/01/15 08:26:04;;;;;;;9.80;2.10;;;4.70;99.90;;;;;;5028999;28;20040;-75
2023/01/15 08:28:30;;;;;;;11.80;1.52;;;4.70;99.90;;;;;;5029080;28;20063;-74
2023/01/15 08:30:56;;;;;;;11.47;2.60;;;4.70;99.90;;;;;;5029580;28;20040;-75
2023/01/15 08:33:21;;;;;;;10.17;2.43;;;4.60;99.90;;;;;;5013074;28;20622;-75
2023/01/15 08:35:47;;;;;;;11.07;2.00;;;4.60;99.90;;;;;;4990926;28;20523;-74
2023/01/15 08:38:13;;;;;;;10.90;1.70;;;4.50;99.90;;;;;;5047314;28;20041;-73
2023/01/15 08:40:57;;;;;;;11.23;1.80;;;4.40;99.90;;;;;;5025434;28;20504;-74
2023/01/15 08:43:24;;;;;;;10.98;2.30;;;4.40;99.90;;;;;;5042967;28;20037;-74
2023/01/15 08:45:49;;;;;;;10.88;1.98;;;4.40;99.90;;;;;;5009683;28;20627;-74
2023/01/15 08:48:15;;;;;;;10.33;1.90;;;4.40;99.90;;;;;;5023966;28;20061;-74
2023/01/15 08:50:41;;;;;;;12.00;2.20;;;4.40;99.90;;;;;;5008274;28;20052;-74
2023/01/15 08:53:06;;;;;;;9.67;2.07;;;4.50;99.90;;;;;;5027195;28;20053;-74
2023/01/15 08:55:32;;;;;;;11.17;2.00;;;4.60;99.90;;;;;;4994388;28;20049;-75
2023/01/15 08:57:58;;;;;;;8.73;1.33;;;4.70;99.90;;;;;;4990578;28;20512;-76
2023/01/15 09:00:24;;;;;;;11.50;1.40;;;4.70;99.90;;;;;;5011235;28;20266;-75
2023/01/15 09:02:49;;;;;;;14.30;2.00;;;4.60;99.90;;;;;;5031196;28;20056;-75
2023/01/15 09:05:15;;;;;;;10.13;1.30;;;4.60;99.90;;;;;;5027524;28;20043;-75
2023/01/15 09:07:41;;;;;;;12.07;2.20;;;4.60;99.90;;;;;;5049238;28;20041;-74
2023/01/15 09:10:07;;;;;;;12.30;2.07;;;4.70;99.90;;;;;;4992546;28;20048;-75
2023/01/15 09:12:33;;;;;;;8.80;1.45;;;4.80;99.90;;;;;;5031989;28;20045;-74
2023/01/15 09:15:00;;;;;;;11.03;1.80;;;4.80;99.90;;;;;;5004148;28;20084;-74
2023/01/15 09:17:26;;;;;;;12.32;2.13;;;4.90;99.90;;;;;;5015041;28;20080;-74
2023/01/15 09:19:52;;;;;;;9.33;1.70;;;5.00;99.90;;;;;;5012709;28;20558;-75
2023/01/15 09:22:17;;;;;;;10.43;1.70;;;5.10;99.90;;;;;;5011608;28;20099;-75
2023/01/15 09:24:43;;;;;;;8.70;1.60;;;5.30;99.90;;;;;;5026345;28;20047;-75
2023/01/15 09:27:12;;;;;;;12.40;1.67;;;5.40;99.90;;;;;;5025940;28;20129;-75
2023/01/15 09:29:38;;;;;;;13.10;2.30;;;5.30;99.90;;;;;;5025139;28;20049;-76
2023/01/15 09:32:04;;;;;;;16.13;1.97;;;5.30;99.90;;;;;;5040205;28;20048;-72
2023/01/15 09:34:29;;;;;;;11.10;1.20;;;5.40;99.90;;;;;;5032402;28;20041;-72
2023/01/15 09:36:55;;;;;;;13.17;2.33;;;5.50;99.90;;;;;;5043088;28;20044;-73
2023/01/15 09:39:21;;;;;;;14.53;2.00;;;5.50;99.90;;;;;;5014953;28;20049;-75
2023/01/15 09:42:09;;;;;;;11.93;2.20;;;5.60;99.90;;;;;;5026468;28;20119;-75
2023/01/15 09:44:52;;;;;;;12.07;1.75;;;5.50;99.90;;;;;;5027057;28;20269;-73
2023/01/15 09:47:59;;;;;;;12.85;2.30;;;5.50;99.90;;;;;;5031627;28;20473;-73
2023/01/15 09:50:43;;;;;;;10.02;1.30;;;5.60;99.90;;;;;;5040800;28;20049;-73
2023/01/15 09:53:36;;;;;;;12.48;1.88;;;5.50;99.90;;;;;;5028926;28;20067;-72
2023/01/15 09:56:03;;;;;;;11.93;1.88;;;5.60;99.90;;;;;;5042723;28;20053;-72
2023/01/15 09:58:38;;;;;;;14.52;2.85;;;5.70;99.90;;;;;;5047168;28;20637;-73
2023/01/15 10:01:05;;;;;;;13.73;2.15;;;5.70;99.90;;;;;;5046370;28;20068;-72
2023/01/15 10:03:53;;;;;;;11.05;1.60;;;5.70;99.90;;;;;;5026117;28;20037;-73
2023/01/15 10:06:32;;;;;;;16.50;1.92;;;5.70;99.90;;;;;;5023602;28;20371;-74
2023/01/15 10:09:19;;;;;;;8.57;2.13;;;5.70;99.90;;;;;;5026635;28;20051;-73
2023/01/15 10:15:15;;;;;;;14.32;1.60;;;5.80;99.90;;;;;;5046383;28;20119;-73
2023/01/15 10:17:43;;;;;;;8.05;1.38;;;6.10;99.90;;;;;;5024122;28;20049;-72
2023/01/15 10:20:23;;;;;;;11.65;1.88;;;6.10;99.90;;;;;;5049263;28;20084;-73
2023/01/15 10:23:03;;;;;;;10.55;1.70;;;6.10;99.90;;;;;;5030784;28;20125;-72
2023/01/15 10:25:38;;;;;;;16.60;2.20;;;6.00;99.90;;;;;;5047815;28;20148;-72
2023/01/15 10:28:28;;;;;;;13.70;1.90;;;6.10;99.90;;;;;;5022988;28;20041;-72
2023/01/15 10:31:01;;;;;;;10.85;2.08;;;6.10;99.90;;;;;;5027854;28;20040;-73
2023/01/15 10:33:38;;;;;;;18.70;2.38;;;6.20;99.90;;;;;;5039747;28;20047;-73
2023/01/15 10:36:13;;;;;;;12.07;1.92;;;6.20;99.90;;;;;;5041285;28;20359;-73
2023/01/15 10:38:57;;;;;;;10.52;1.55;;;6.20;99.90;;;;;;5038892;28;20568;-72
2023/01/15 10:41:39;;;;;;;12.30;2.35;;;6.10;99.90;;;;;;5030444;28;20041;-72
2023/01/15 10:44:25;;;;;;;13.45;1.95;;;6.20;99.90;;;;;;5030874;28;20040;-72
2023/01/15 10:46:59;;;;;;;11.43;2.03;;;6.20;99.90;;;;;;5031010;28;20051;-72
2023/01/15 10:49:28;;;;;;;17.35;1.85;;;6.30;99.90;;;;;;5039756;28;20119;-73
2023/01/15 10:51:56;;;;;;;13.65;2.00;;;6.40;99.90;;;;;;5028369;28;20049;-74
2023/01/15 10:54:31;;;;;;;13.35;2.00;;;6.60;99.90;;;;;;5029447;28;20123;-73
2023/01/15 10:57:13;;;;;;;11.13;1.80;;;6.60;99.90;;;;;;5029438;28;20037;-72
2023/01/15 10:59:51;;;;;;;14.27;2.72;;;6.60;99.90;;;;;;5028656;28;20460;-74
2023/01/15 11:02:22;;;;;;;15.48;2.28;;;6.60;99.90;;;;;;5027282;28;20033;-75
2023/01/15 11:04:48;;;;;;;8.02;1.38;;;6.60;99.90;;;;;;5046817;28;20460;-73
2023/01/15 11:07:15;;;;;;;11.68;1.83;;;6.50;99.90;;;;;;5027982;28;20041;-74
2023/01/15 11:09:41;;;;;;;10.90;1.50;;;6.60;99.90;;;;;;5027007;28;20041;-74
2023/01/15 11:20:43;;;;;;;11.00;1.95;;;6.60;99.90;;;;;;5025432;28;20072;-74
2023/01/15 11:23:12;;;;;;;10.95;1.77;;;6.60;99.90;;;;;;5025492;28;20041;-74
2023/01/15 11:25:47;;;;;;;9.63;2.38;;;6.50;99.90;;;;;;5045957;28;20037;-73
2023/01/15 11:28:14;;;;;;;13.73;2.45;;;6.50;99.90;;;;;;5027790;28;20044;-74
2023/01/15 11:30:41;;;;;;;14.90;1.77;;;6.40;99.90;;;;;;5005776;28;20545;-74
2023/01/15 11:33:24;;;;;;;12.57;1.70;;;6.40;99.90;;;;;;4997743;28;20056;-75
2023/01/15 11:35:56;;;;;;;18.20;2.85;;;6.40;99.90;;;;;;5022417;28;20318;-74
2023/01/15 11:38:22;;;;;;;16.02;1.83;;;6.40;99.90;;;;;;5045426;28;20065;-76
2023/01/15 11:40:53;;;;;;;12.30;1.80;;;6.40;99.90;;;;;;5012300;28;20033;-75
2023/01/15 11:51:58;;;;;;;10.63;2.00;;;6.30;99.90;;;;;;5047717;28;20041;-76
2023/01/15 11:54:25;;;;;;;17.00;2.45;;;6.20;99.90;;;;;;5014299;28;20056;-75
2023/01/15 11:56:52;;;;;;;14.90;1.73;;;6.30;99.90;;;;;;5026507;28;20148;-75
2023/01/15 11:59:20;;;;;;;12.35;2.15;;;6.20;99.90;;;;;;5046759;28;20465;-77
2023/01/15 12:01:58;;;;;;;8.55;1.42;;;6.20;99.90;;;;;;5030622;28;20074;-75
2023/01/15 12:04:44;;;;;;;12.05;1.95;;;6.20;99.90;;;;;;5042793;28;20567;-76
2023/01/15 12:07:12;;;;;;;;;;;6.20;99.90;;;;;;5031074;28;20048;-76
2023/01/15 12:10:12;;;;;;;14.90;1.60;;;6.00;99.90;;;;;;5047628;28;19917;-75
2023/01/15 12:13:06;;;;;;;10.80;1.40;;;5.60;99.90;;;;;;5048218;28;20115;-76
2023/01/15 12:15:44;;;;;;;13.27;2.20;;;5.30;99.90;;;;;;5027295;28;20397;-77
2023/01/15 12:18:30;;;;;;;11.65;1.85;;;5.00;99.90;;;;;;5047452;28;20486;-78
2023/01/15 12:21:34;;;;;;;20.13;3.35;;;4.80;99.90;;;;;;5032787;28;20075;-77
2023/01/15 12:24:31;;;;;;;14.95;2.67;;;4.70;99.90;;;;;;4960052;28;20045;-79
2023/01/15 12:27:25;;;;;;;11.23;1.55;;;4.60;99.90;;;;;;5028216;28;20417;-78
2023/01/15 12:29:59;;;;;;;10.85;1.85;;;4.60;99.90;;;;;;5046624;28;20048;-79
2023/01/15 12:32:40;;;;;;;12.55;2.50;;;4.50;99.90;;;;;;5032548;28;20036;-79
2023/01/15 12:35:43;;;;;;;10.60;1.67;;;4.50;99.90;;;;;;5042856;28;20037;-78
2023/01/15 12:38:19;;;;;;;11.82;1.92;;;4.40;99.90;;;;;;5014389;28;20073;-77
2023/01/15 12:40:52;;;;;;;12.18;2.75;;;4.50;99.90;;;;;;5030022;28;20795;-77
2023/01/15 12:46:14;;;;;;;8.30;1.30;;;4.50;99.90;;;;;;5042790;28;20041;-78
2023/01/15 12:49:14;;;;;;;10.13;1.25;;;4.60;99.90;;;;;;5032136;28;20109;-77
2023/01/15 12:51:46;;;;;;;12.55;2.08;;;4.60;99.90;;;;;;5041322;28;20041;-77
2023/01/15 12:54:14;;;;;;;9.77;2.22;;;4.70;99.90;;;;;;5030201;28;20060;-78
2023/01/15 12:57:00;;;;;;;8.63;2.72;;;4.70;99.90;;;;;;5021462;28;20052;-77
2023/01/15 12:59:36;;;;;;;7.97;1.80;;;4.70;99.90;;;;;;5030442;28;20037;-77
2023/01/15 13:02:20;;;;;;;11.40;1.77;;;4.70;99.90;;;;;;5032031;28;20171;-77
2023/01/15 13:05:18;;;;;;;12.35;1.70;;;4.60;99.90;;;;;;5048369;28;20045;-77
2023/01/15 13:07:54;;;;;;;14.68;4.40;;;4.70;99.90;;;;;;5047793;28;20492;-77
2023/01/15 13:10:33;;;;;;;13.02;2.22;;;4.70;99.90;;;;;;5047381;28;20132;-76
2023/01/15 13:13:14;;;;;;;12.25;2.88;;;4.70;99.90;;;;;;5027439;28;20037;-76
2023/01/15 13:16:06;;;;;;;11.38;2.42;;;4.80;99.90;;;;;;5044179;28;20045;-75
2023/01/15 13:18:57;;;;;;;13.93;2.20;;;4.80;99.90;;;;;;5001760;28;20057;-76
2023/01/15 13:21:26;;;;;;;8.70;1.90;;;4.90;99.90;;;;;;5044650;28;20052;-75
2023/01/15 13:24:19;;;;;;;10.38;1.65;;;4.90;99.90;;;;;;5032991;28;20116;-77
2023/01/15 13:27:20;;;;;;;10.15;1.80;;;5.00;99.90;;;;;;5048795;28;20523;-77
2023/01/15 13:30:12;;;;;;;12.27;2.25;;;5.00;99.90;;;;;;5030553;28;20493;-77
2023/01/15 13:32:51;;;;;;;15.65;2.38;;;5.00;99.90;;;;;;5027702;28;20125;-76
2023/01/15 13:35:25;;;;;;;9.85;1.80;;;5.00;99.90;;;;;;5016682;28;20033;-76
2023/01/15 13:37:54;;;;;;;10.15;1.55;;;5.00;99.90;;;;;;5030264;28;20509;-78
2023/01/15 13:58:53;;;;;;;9.75;1.05;;;5.50;99.90;;;;;;5161384;22;20471;-72
2023/01/15 14:01:21;;;;;;;8.60;1.45;;;5.30;99.90;;;;;;5109259;28;20043;-72
2023/01/15 14:04:13;;;;;;;10.00;2.80;;;5.30;99.90;;;;;;5097455;28;20471;-73
2023/01/15 14:06:43;;;;;;;16.42;2.63;;;5.30;99.90;;;;;;5119218;28;20047;-73
2023/01/15 14:09:23;;;;;;;11.95;1.77;;;5.30;99.90;;;;;;5110413;28;20039;-73
2023/01/15 14:12:23;;;;;;;12.90;1.95;;;5.30;99.90;;;;;;5098614;28;20383;-73
2023/01/15 14:14:55;;;;;;;15.93;2.78;;;5.40;99.90;;;;;;5076243;28;20071;-72
2023/01/15 14:17:50;;;;;;;12.68;1.92;;;5.40;99.90;;;;;;5117406;28;20044;-73
2023/01/15 14:20:25;;;;;;;14.93;1.83;;;5.40;99.90;;;;;;5113761;28;20051;-73
2023/01/15 14:23:27;;;;;;;9.07;1.67;;;5.40;99.90;;;;;;5098967;28;20040;-73
2023/01/15 14:26:03;;;;;;;8.68;1.85;;;5.40;99.90;;;;;;5123271;28;20043;-72